createdAt,value
2023-07-03T00:00:20.503Z,4.75
2023-07-03T00:02:52.151Z,3.90
2023-07-03T00:05:19.802Z,3.85
2023-07-03T00:07:48.468Z,3.70
2023-07-03T00:10:16.556Z,4.47
2023-07-03T00:12:44.058Z,3.97
2023-07-03T00:15:12.186Z,3.92
2023-07-03T00:17:39.548Z,3.53
2023-07-03T00:20:12.292Z,3.92
2023-07-03T00:22:39.696Z,3.15
2023-07-03T00:25:07.871Z,3.88
2023-07-03T00:27:35.263Z,4.25
2023-07-03T00:30:02.746Z,4.38
2023-07-03T00:32:30.195Z,4.10
2023-07-03T00:34:57.576Z,3.50
2023-07-03T00:37:27.860Z,5.00
2023-07-03T00:39:55.198Z,3.83
2023-07-03T00:42:24.188Z,4.07
2023-07-03T00:44:51.591Z,4.15
2023-07-03T00:47:19.078Z,4.75
2023-07-03T00:49:46.682Z,4.43
2023-07-03T00:52:14.611Z,4.15
2023-07-03T00:54:43.608Z,4.07
2023-07-03T00:57:12.799Z,4.40
2023-07-03T00:59:40.263Z,4.65
2023-07-03T01:02:10.730Z,4.68
2023-07-03T01:04:40.756Z,4.38
2023-07-03T01:07:09.498Z,4.28
2023-07-03T01:09:39.686Z,3.97
2023-07-03T01:12:09.509Z,4.45
2023-07-03T01:14:37.828Z,3.60
2023-07-03T01:17:10.734Z,3.88
2023-07-03T01:19:39.460Z,4.03
2023-07-03T01:22:09.910Z,4.18
2023-07-03T01:24:40.895Z,5.30
2023-07-03T01:27:10.260Z,4.22
2023-07-03T01:29:38.479Z,4.35
2023-07-03T01:32:07.181Z,4.82
2023-07-03T01:34:34.969Z,4.03
2023-07-03T01:37:03.359Z,4.95
2023-07-03T01:39:31.046Z,4.32
2023-07-03T01:42:00.279Z,4.30
2023-07-03T01:44:28.111Z,4.57
2023-07-03T01:46:55.483Z,4.30
2023-07-03T01:49:22.822Z,4.45
2023-07-03T01:51:55.928Z,4.20
2023-07-03T01:54:28.098Z,4.72
2023-07-03T01:56:56.153Z,4.28
2023-07-03T01:59:26.400Z,4.20
2023-07-03T02:01:56.532Z,4.20
2023-07-03T02:04:27.493Z,4.10
2023-07-03T02:06:55.540Z,4.50
2023-07-03T02:09:23.274Z,4.60
2023-07-03T02:11:50.693Z,4.55
2023-07-03T02:14:18.144Z,5.15
2023-07-03T02:16:48.384Z,4.63
2023-07-03T02:19:16.288Z,3.90
2023-07-03T02:21:44.990Z,4.32
2023-07-03T02:24:12.681Z,4.55
2023-07-03T02:26:40.169Z,4.00
2023-07-03T02:29:07.602Z,4.03
2023-07-03T02:31:34.945Z,4.10
2023-07-03T02:34:03.628Z,5.13
2023-07-03T02:36:31.568Z,4.63
2023-07-03T02:38:59.670Z,4.22
2023-07-03T02:41:26.982Z,5.30
2023-07-03T02:43:54.350Z,4.28
2023-07-03T02:46:21.748Z,5.07
2023-07-03T02:48:49.118Z,5.07
2023-07-03T02:51:17.843Z,4.80
2023-07-03T02:53:45.180Z,4.53
2023-07-03T02:56:12.595Z,4.35
2023-07-03T02:58:39.943Z,4.53
2023-07-03T03:01:07.387Z,4.78
2023-07-03T03:03:35.154Z,5.13
2023-07-03T03:06:02.631Z,5.22
2023-07-03T03:08:31.475Z,4.38
2023-07-03T03:10:59.680Z,3.67
2023-07-03T03:13:27.052Z,4.53
2023-07-03T03:15:54.492Z,3.90
2023-07-03T03:18:22.025Z,4.70
2023-07-03T03:20:49.421Z,4.95
2023-07-03T03:23:16.809Z,4.70
2023-07-03T03:25:45.531Z,4.18
2023-07-03T03:28:12.855Z,5.32
2023-07-03T03:30:40.250Z,4.40
2023-07-03T03:33:07.575Z,5.13
2023-07-03T03:35:34.947Z,4.60
2023-07-03T03:38:02.288Z,4.78
2023-07-03T03:40:29.633Z,3.85
2023-07-03T03:42:58.373Z,3.38
2023-07-03T03:45:26.247Z,3.78
2023-07-03T03:47:53.742Z,4.25
2023-07-03T03:50:21.216Z,4.60
2023-07-03T03:52:48.787Z,5.55
2023-07-03T03:55:16.175Z,4.43
2023-07-03T03:57:43.505Z,4.10
2023-07-03T04:00:17.994Z,4.72
2023-07-03T04:02:45.520Z,4.55
2023-07-03T04:05:13.574Z,4.72
2023-07-03T04:07:41.053Z,4.15
2023-07-03T04:10:09.251Z,4.53
2023-07-03T04:12:36.581Z,4.60
2023-07-03T04:15:04.417Z,4.75
2023-07-03T04:17:33.143Z,4.60
2023-07-03T04:20:00.502Z,4.45
2023-07-03T04:22:28.005Z,4.57
2023-07-03T04:24:55.361Z,3.83
2023-07-03T04:27:22.727Z,4.35
2023-07-03T04:29:50.220Z,4.43
2023-07-03T04:32:17.586Z,4.45
2023-07-03T04:34:46.271Z,4.38
2023-07-03T04:37:14.228Z,4.85
2023-07-03T04:39:41.554Z,4.35
2023-07-03T04:42:14.303Z,5.05
2023-07-03T04:44:42.884Z,4.45
2023-07-03T04:47:10.294Z,4.97
2023-07-03T04:49:37.736Z,5.18
2023-07-03T04:52:06.973Z,5.05
2023-07-03T04:54:34.308Z,5.13
2023-07-03T04:57:04.464Z,5.38
2023-07-03T04:59:32.007Z,6.07
2023-07-03T05:01:59.464Z,4.65
2023-07-03T05:04:26.925Z,4.80
2023-07-03T05:06:54.259Z,5.18
2023-07-03T05:09:22.971Z,4.82
2023-07-03T05:11:50.571Z,4.85
2023-07-03T05:14:18.100Z,4.82
2023-07-03T05:16:45.476Z,4.65
2023-07-03T05:19:14.345Z,5.00
2023-07-03T05:21:41.691Z,5.10
2023-07-03T05:24:09.130Z,4.82
2023-07-03T05:26:37.808Z,5.90
2023-07-03T05:29:05.185Z,4.60
2023-07-03T05:31:32.554Z,5.47
2023-07-03T05:34:00.110Z,4.10
2023-07-03T05:36:27.454Z,4.90
2023-07-03T05:38:54.824Z,5.57
2023-07-03T05:41:22.163Z,4.88
2023-07-03T05:43:50.799Z,4.60
2023-07-03T05:46:19.619Z,4.70
2023-07-03T05:48:47.954Z,4.88
2023-07-03T05:51:15.286Z,4.95
2023-07-03T05:53:42.580Z,4.35
2023-07-03T05:56:09.922Z,5.15
2023-07-03T05:58:37.324Z,4.47
2023-07-03T06:01:06.041Z,4.50
2023-07-03T06:03:33.818Z,5.07
2023-07-03T06:06:01.290Z,5.30
2023-07-03T06:08:28.615Z,4.32
2023-07-03T06:10:55.990Z,4.32
2023-07-03T06:13:23.528Z,4.32
2023-07-03T06:15:51.058Z,4.93
2023-07-03T06:18:19.884Z,4.57
2023-07-03T06:20:47.775Z,4.50
2023-07-03T06:23:15.087Z,4.57
2023-07-03T06:25:42.574Z,4.20
2023-07-03T06:28:09.923Z,4.53
2023-07-03T06:30:37.271Z,5.35
2023-07-03T06:33:04.809Z,4.82
2023-07-03T06:35:49.940Z,5.07
2023-07-03T06:38:17.305Z,5.18
2023-07-03T06:40:44.637Z,4.28
2023-07-03T06:43:12.015Z,4.93
2023-07-03T06:45:39.755Z,4.75
2023-07-03T06:48:07.803Z,5.70
2023-07-03T06:50:37.358Z,4.88
2023-07-03T06:53:04.732Z,4.82
2023-07-03T06:55:32.227Z,5.85
2023-07-03T06:58:01.468Z,5.05
2023-07-03T07:00:30.140Z,5.57
2023-07-03T07:02:58.202Z,5.07
2023-07-03T07:05:28.657Z,5.07
2023-07-03T07:07:57.437Z,6.03
2023-07-03T07:10:25.365Z,4.38
2023-07-03T07:12:52.708Z,6.00
2023-07-03T07:15:20.067Z,5.38
2023-07-03T07:17:51.867Z,5.65
2023-07-03T07:20:19.800Z,5.10
2023-07-03T07:22:47.173Z,4.75
2023-07-03T07:25:15.974Z,4.78
2023-07-03T07:27:43.499Z,5.07
2023-07-03T07:30:11.403Z,5.47
2023-07-03T07:32:38.760Z,5.72
2023-07-03T07:35:09.314Z,5.25
2023-07-03T07:37:36.651Z,5.05
2023-07-03T07:40:04.771Z,4.68
2023-07-03T07:42:33.579Z,4.43
2023-07-03T07:45:01.085Z,4.28
2023-07-03T07:47:28.458Z,4.30
2023-07-03T07:49:55.823Z,4.13
2023-07-03T07:52:24.877Z,4.90
2023-07-03T07:54:55.043Z,4.45
2023-07-03T07:57:22.565Z,4.15
2023-07-03T07:59:51.251Z,3.80
2023-07-03T08:02:18.632Z,3.90
2023-07-03T08:04:46.524Z,4.22
2023-07-03T08:07:13.954Z,3.72
2023-07-03T08:09:41.629Z,3.92
2023-07-03T08:12:09.508Z,4.15
2023-07-03T08:14:36.835Z,4.22
2023-07-03T08:17:05.656Z,4.20
2023-07-03T08:19:33.025Z,3.85
2023-07-03T08:22:00.359Z,4.30
2023-07-03T08:24:27.694Z,5.45
2023-07-03T08:26:55.399Z,3.67
2023-07-03T08:29:22.736Z,4.07
2023-07-03T08:31:50.100Z,4.28
2023-07-03T08:34:19.152Z,4.07
2023-07-03T08:39:16.731Z,3.47
2023-07-03T08:41:46.970Z,4.90
2023-07-03T08:44:14.574Z,4.00
2023-07-03T08:46:42.765Z,3.35
2023-07-03T08:49:14.153Z,3.47
2023-07-03T08:51:44.207Z,3.47
2023-07-03T08:54:16.323Z,4.15
2023-07-03T08:56:44.268Z,3.90
2023-07-03T08:59:11.712Z,3.83
2023-07-03T09:01:43.408Z,4.05
2023-07-03T09:04:26.207Z,3.92
2023-07-03T09:06:56.142Z,3.20
2023-07-03T09:09:27.672Z,2.92
2023-07-03T09:11:57.328Z,3.50
2023-07-03T09:14:26.506Z,3.65
2023-07-03T09:16:54.147Z,3.80
2023-07-03T09:19:23.587Z,3.58
2023-07-03T09:21:53.655Z,3.78
2023-07-03T09:24:24.066Z,3.40
2023-07-03T09:26:55.504Z,3.20
2023-07-03T09:29:23.563Z,2.90
2023-07-03T09:31:51.964Z,3.10
2023-07-03T09:34:20.457Z,3.05
2023-07-03T09:36:59.056Z,3.03
2023-07-03T09:39:28.410Z,2.75
2023-07-03T09:42:06.079Z,3.72
2023-07-03T09:44:33.446Z,3.03
2023-07-03T09:47:01.278Z,3.35
2023-07-03T09:49:29.758Z,3.42
2023-07-03T09:51:58.847Z,3.03
2023-07-03T09:54:31.049Z,3.00
2023-07-03T09:56:58.663Z,3.42
2023-07-03T09:59:26.531Z,3.33
2023-07-03T10:07:06.604Z,4.00
2023-07-03T10:12:11.036Z,3.53
2023-07-03T10:14:42.844Z,3.55
2023-07-03T10:17:14.116Z,3.75
2023-07-03T10:19:42.538Z,3.85
2023-07-03T10:22:10.437Z,4.22
2023-07-03T10:24:39.981Z,3.83
2023-07-03T10:27:07.839Z,3.75
2023-07-03T10:29:38.389Z,3.67
2023-07-03T10:32:07.047Z,3.60
2023-07-03T10:34:38.360Z,3.92
2023-07-03T10:37:07.168Z,4.40
2023-07-03T10:39:39.502Z,3.63
2023-07-03T10:42:11.938Z,4.07
2023-07-03T10:44:40.569Z,4.45
2023-07-03T10:47:11.138Z,3.63
2023-07-03T10:49:40.611Z,3.80
2023-07-03T10:52:13.400Z,3.70
2023-07-03T10:54:48.688Z,4.03
2023-07-03T10:57:21.632Z,3.72
2023-07-03T10:59:50.415Z,4.22
2023-07-03T11:02:21.603Z,3.38
2023-07-03T11:04:54.955Z,3.97
2023-07-03T11:07:28.267Z,4.90
2023-07-03T11:09:59.606Z,3.97
2023-07-03T11:12:34.019Z,3.60
2023-07-03T11:15:10.678Z,4.07
2023-07-03T11:20:21.937Z,4.05
2023-07-03T11:22:51.448Z,4.03
2023-07-03T11:25:21.486Z,3.72
2023-07-03T11:27:55.835Z,3.50
2023-07-03T11:30:26.981Z,3.33
2023-07-03T11:32:55.160Z,3.33
2023-07-03T11:40:35.948Z,3.40
2023-07-03T11:46:02.516Z,3.70
2023-07-03T11:48:30.718Z,3.45
2023-07-03T11:50:58.947Z,3.47
2023-07-03T11:53:31.349Z,3.75
2023-07-03T11:55:59.117Z,3.55
2023-07-03T11:58:28.628Z,4.32
2023-07-03T12:01:14.737Z,4.03
2023-07-03T12:03:51.747Z,3.95
2023-07-03T12:06:34.008Z,3.60
2023-07-03T12:09:16.294Z,3.65
2023-07-03T12:12:00.175Z,4.10
2023-07-03T12:14:42.749Z,3.90
2023-07-03T12:17:17.827Z,2.97
2023-07-03T12:19:45.413Z,3.45
2023-07-03T12:22:13.650Z,4.20
2023-07-03T12:24:40.987Z,3.72
2023-07-03T12:27:09.440Z,4.00
2023-07-03T12:29:37.817Z,4.18
2023-07-03T12:32:08.546Z,3.35
2023-07-03T12:34:38.204Z,4.03
2023-07-03T12:37:07.088Z,4.28
2023-07-03T12:39:36.191Z,3.70
2023-07-03T12:42:07.706Z,3.47
2023-07-03T12:44:35.267Z,3.55
2023-07-03T12:47:08.528Z,3.90
2023-07-03T12:49:49.062Z,4.15
2023-07-03T12:52:17.034Z,4.15
2023-07-03T12:54:44.504Z,4.00
2023-07-03T12:57:12.142Z,4.32
2023-07-03T12:59:39.561Z,4.15
2023-07-03T13:02:07.991Z,5.15
2023-07-03T13:04:36.054Z,3.92
2023-07-03T13:07:05.436Z,4.28
2023-07-03T13:09:33.871Z,4.20
2023-07-03T13:12:01.264Z,4.32
2023-07-03T13:14:30.123Z,3.90
2023-07-03T13:16:58.611Z,3.42
2023-07-03T13:19:27.406Z,3.92
2023-07-03T13:21:54.989Z,4.53
2023-07-03T13:24:24.741Z,3.97
2023-07-03T13:26:52.365Z,4.97
2023-07-03T13:29:23.996Z,4.05
2023-07-03T13:31:52.946Z,3.83
2023-07-03T13:34:21.724Z,4.00
2023-07-03T13:36:51.506Z,4.43
2023-07-03T13:39:32.822Z,4.32
2023-07-03T13:42:00.335Z,4.07
2023-07-03T13:44:28.005Z,3.83
2023-07-03T13:46:55.903Z,3.55
2023-07-03T13:49:23.398Z,4.07
2023-07-03T13:51:51.866Z,3.72
2023-07-03T13:54:19.339Z,4.65
2023-07-03T13:56:48.103Z,3.80
2023-07-03T13:59:15.612Z,3.85
2023-07-03T14:01:43.956Z,4.43
2023-07-03T14:04:12.351Z,3.35
2023-07-03T14:06:39.786Z,3.30
2023-07-03T14:09:09.781Z,3.45
2023-07-03T14:11:37.371Z,3.30
2023-07-03T14:14:06.909Z,4.38
2023-07-03T14:16:34.293Z,4.13
2023-07-03T14:19:03.756Z,4.05
2023-07-03T14:21:33.212Z,4.53
2023-07-03T14:24:00.554Z,3.92
2023-07-03T14:26:27.911Z,4.55
2023-07-03T14:28:55.272Z,3.95
2023-07-03T14:31:24.889Z,4.32
2023-07-03T14:33:52.332Z,4.10
2023-07-03T14:36:19.824Z,4.43
2023-07-03T14:38:47.592Z,4.13
2023-07-03T14:41:15.248Z,5.25
2023-07-03T14:43:42.610Z,4.53
2023-07-03T14:46:10.227Z,5.57
2023-07-03T14:48:39.029Z,4.20
2023-07-03T14:51:06.619Z,4.90
2023-07-03T14:53:33.993Z,4.75
2023-07-03T14:56:03.493Z,5.15
2023-07-03T14:58:31.318Z,5.85
2023-07-03T15:01:01.187Z,5.70
2023-07-03T15:03:28.784Z,5.88
2023-07-03T15:05:57.667Z,5.45
2023-07-03T15:08:25.094Z,5.32
2023-07-03T15:10:52.459Z,5.50
2023-07-03T15:13:19.902Z,5.28
2023-07-03T15:15:51.268Z,5.78
2023-07-03T15:18:18.893Z,4.82
2023-07-03T15:20:47.283Z,5.85
2023-07-03T15:23:16.463Z,5.57
2023-07-03T15:25:43.886Z,5.82
2023-07-03T15:28:11.306Z,5.57
2023-07-03T15:30:39.767Z,5.50
2023-07-03T15:33:07.224Z,5.18
2023-07-03T15:35:34.669Z,5.95
2023-07-03T15:38:02.034Z,5.13
2023-07-03T15:40:30.809Z,6.00
2023-07-03T15:42:58.260Z,5.13
2023-07-03T15:45:26.249Z,5.88
2023-07-03T15:47:53.697Z,6.72
2023-07-03T15:50:21.159Z,6.53
2023-07-03T15:52:48.542Z,6.78
2023-07-03T15:55:15.980Z,6.53
2023-07-03T15:57:44.712Z,7.03
2023-07-03T16:00:12.815Z,7.00
2023-07-03T16:02:40.254Z,6.35
2023-07-03T16:05:07.870Z,7.28
2023-07-03T16:07:35.799Z,7.65
2023-07-03T16:10:03.384Z,6.88
2023-07-03T16:12:30.816Z,6.60
2023-07-03T16:14:59.530Z,7.10
2023-07-03T16:17:27.077Z,6.82
2023-07-03T16:20:04.098Z,7.35
2023-07-03T16:22:31.565Z,6.88
2023-07-03T16:24:58.965Z,7.18
2023-07-03T16:27:26.314Z,6.00
2023-07-03T16:29:53.681Z,6.70
2023-07-03T16:32:22.441Z,6.50
2023-07-03T16:34:49.894Z,6.05
2023-07-03T16:37:17.273Z,5.65
2023-07-03T16:39:44.652Z,5.75
2023-07-03T16:42:12.045Z,5.88
2023-07-03T16:44:39.431Z,5.97
2023-07-03T16:47:06.947Z,6.00
2023-07-03T16:49:35.669Z,5.82
2023-07-03T16:52:03.334Z,6.38
2023-07-03T16:54:30.725Z,6.68
2023-07-03T16:56:58.117Z,6.55
2023-07-03T16:59:25.428Z,6.18
2023-07-03T17:01:52.883Z,6.20
2023-07-03T17:04:20.323Z,6.75
2023-07-03T17:06:49.149Z,6.35
2023-07-03T17:09:19.330Z,7.45
2023-07-03T17:11:46.897Z,6.75
2023-07-03T17:14:14.345Z,6.80
2023-07-03T17:16:41.779Z,5.57
2023-07-03T17:19:09.178Z,6.47
2023-07-03T17:21:38.244Z,6.38
2023-07-03T17:24:07.650Z,5.90
2023-07-03T17:26:35.126Z,6.05
2023-07-03T17:29:04.340Z,6.28
2023-07-03T17:31:31.983Z,6.15
2023-07-03T17:33:59.471Z,6.18
2023-07-03T17:36:26.831Z,5.75
2023-07-03T17:38:54.249Z,6.05
2023-07-03T17:41:24.450Z,5.30
2023-07-03T17:43:52.331Z,6.65
2023-07-03T17:46:19.702Z,5.50
2023-07-03T17:48:47.173Z,6.00
2023-07-03T17:51:14.621Z,6.30
2023-07-03T17:53:42.554Z,5.93
2023-07-03T17:56:09.971Z,5.85
2023-07-03T17:58:38.717Z,6.53
2023-07-03T18:01:06.457Z,5.18
2023-07-03T18:03:34.660Z,5.90
2023-07-03T18:06:02.307Z,6.15
2023-07-03T18:08:29.736Z,5.53
2023-07-03T18:10:57.157Z,6.47
2023-07-03T18:13:24.568Z,6.13
2023-07-03T18:15:53.285Z,5.78
2023-07-03T18:18:21.607Z,5.93
2023-07-03T18:20:49.130Z,6.45
2023-07-03T18:23:16.580Z,6.97
2023-07-03T18:25:43.960Z,5.63
2023-07-03T18:28:11.292Z,6.25
2023-07-03T18:30:38.697Z,6.90
2023-07-03T18:33:07.416Z,7.00
2023-07-03T18:35:35.738Z,6.20
2023-07-03T18:38:04.694Z,6.55
2023-07-03T18:40:32.054Z,6.72
2023-07-03T18:42:59.410Z,6.75
2023-07-03T18:45:26.783Z,7.05
2023-07-03T18:47:54.230Z,6.60
2023-07-03T18:50:23.164Z,6.45
2023-07-03T18:52:50.716Z,7.00
2023-07-03T18:55:18.912Z,6.50
2023-07-03T18:57:47.446Z,7.10
2023-07-03T19:00:15.684Z,6.68
2023-07-03T19:02:45.919Z,6.10
2023-07-03T19:05:13.469Z,7.13
2023-07-03T19:07:43.497Z,6.47
2023-07-03T19:10:18.311Z,6.93
2023-07-03T19:12:46.514Z,6.68
2023-07-03T19:15:13.967Z,6.65
2023-07-03T19:17:41.392Z,6.43
2023-07-03T19:20:11.122Z,5.80
2023-07-03T19:22:38.560Z,6.85
2023-07-03T19:25:08.255Z,7.00
2023-07-03T19:27:35.696Z,7.07
2023-07-03T19:30:03.538Z,6.40
2023-07-03T19:32:30.983Z,5.90
2023-07-03T19:34:58.359Z,6.40
2023-07-03T19:37:26.242Z,6.32
2023-07-03T19:39:53.596Z,7.07
2023-07-03T19:42:22.327Z,6.35
2023-07-03T19:44:49.715Z,6.47
2023-07-03T19:47:17.167Z,7.22
2023-07-03T19:49:44.801Z,6.18
2023-07-03T19:52:13.025Z,6.75
2023-07-03T19:54:40.440Z,6.25
2023-07-03T19:57:07.891Z,6.03
2023-07-03T19:59:38.055Z,5.78
2023-07-03T20:02:06.674Z,6.53
2023-07-03T20:04:34.288Z,6.32
2023-07-03T20:07:01.837Z,6.72
2023-07-03T20:09:29.997Z,5.95
2023-07-03T20:11:57.389Z,6.70
2023-07-03T20:14:24.823Z,6.10
2023-07-03T20:16:53.631Z,6.28
2023-07-03T20:19:21.258Z,6.05
2023-07-03T20:21:48.620Z,6.32
2023-07-03T20:24:15.998Z,5.18
2023-07-03T20:26:43.347Z,5.50
2023-07-03T20:29:10.836Z,5.35
2023-07-03T20:31:38.173Z,4.95
2023-07-03T20:34:06.874Z,4.97
2023-07-03T20:36:35.331Z,4.05
2023-07-03T20:39:04.733Z,4.18
2023-07-03T20:41:33.668Z,4.03
2023-07-03T20:44:05.703Z,3.83
2023-07-03T20:46:34.031Z,3.83
2023-07-03T20:49:01.744Z,3.47
2023-07-03T20:51:33.579Z,3.63
2023-07-03T20:54:04.137Z,4.03
2023-07-03T20:56:33.103Z,3.67
2023-07-03T20:59:01.433Z,4.53
2023-07-03T21:01:30.483Z,3.40
2023-07-03T21:03:59.882Z,3.55
2023-07-03T21:06:27.998Z,3.30
2023-07-03T21:08:57.127Z,3.28
2023-07-03T21:11:25.723Z,3.28
2023-07-03T21:13:54.791Z,3.75
2023-07-03T21:16:23.596Z,3.50
2023-07-03T21:18:51.197Z,4.03
2023-07-03T21:21:19.497Z,3.47
2023-07-03T21:23:47.357Z,4.05
2023-07-03T21:26:17.196Z,3.53
2023-07-03T21:28:44.575Z,3.83
2023-07-03T21:31:12.820Z,3.83
2023-07-03T21:33:40.398Z,3.60
2023-07-03T21:36:08.431Z,4.10
2023-07-03T21:38:36.915Z,3.70
2023-07-03T21:41:04.286Z,3.45
2023-07-03T21:43:33.462Z,3.33
2023-07-03T21:46:02.219Z,3.80
2023-07-03T21:48:29.732Z,3.25
2023-07-03T21:50:57.160Z,3.40
2023-07-03T21:53:24.524Z,3.55
2023-07-03T21:55:52.131Z,3.78
2023-07-03T21:58:19.618Z,4.15
2023-07-03T22:00:50.240Z,3.45
2023-07-03T22:03:17.621Z,3.58
2023-07-03T22:05:44.967Z,3.92
2023-07-03T22:08:12.472Z,3.15
2023-07-03T22:10:39.798Z,3.30
2023-07-03T22:13:07.359Z,3.25
2023-07-03T22:15:35.075Z,3.05
2023-07-03T22:18:03.856Z,3.10
2023-07-03T22:20:32.217Z,3.10
2023-07-03T22:22:59.822Z,3.53
2023-07-03T22:25:27.330Z,3.15
2023-07-03T22:27:54.684Z,3.08
2023-07-03T22:30:22.202Z,3.58
2023-07-03T22:32:49.611Z,3.40
2023-07-03T22:35:18.833Z,2.80
2023-07-03T22:37:46.286Z,3.80
2023-07-03T22:40:14.737Z,2.97
2023-07-03T22:42:42.335Z,3.03
2023-07-03T22:45:10.867Z,3.03
2023-07-03T22:47:38.298Z,3.50
2023-07-03T22:50:06.338Z,3.03
2023-07-03T22:52:35.682Z,3.10
2023-07-03T22:55:04.998Z,3.30
2023-07-03T22:57:32.392Z,3.10
2023-07-03T23:00:00.011Z,3.30
2023-07-03T23:02:29.293Z,3.05
2023-07-03T23:04:56.722Z,3.83
2023-07-03T23:07:24.108Z,2.60
2023-07-03T23:09:52.861Z,3.17
2023-07-03T23:12:20.223Z,2.88
2023-07-03T23:14:49.489Z,3.35
2023-07-03T23:17:24.756Z,3.17
2023-07-03T23:19:53.788Z,3.22
2023-07-03T23:22:21.310Z,3.00
2023-07-03T23:24:49.277Z,3.22
2023-07-03T23:27:20.432Z,2.60
2023-07-03T23:29:47.860Z,3.00
2023-07-03T23:32:15.557Z,2.80
2023-07-03T23:34:43.273Z,3.10
2023-07-03T23:37:10.795Z,3.38
2023-07-03T23:39:38.205Z,3.38
2023-07-03T23:42:06.580Z,2.95
2023-07-03T23:44:35.629Z,2.67
2023-07-03T23:47:03.303Z,3.33
2023-07-03T23:49:31.019Z,3.50
2023-07-03T23:51:58.448Z,2.70
2023-07-03T23:54:26.208Z,3.13
2023-07-03T23:56:53.874Z,2.72
2023-07-03T23:59:21.646Z,3.22
